Flight Track Log - Related Links

Times and Time Zones

All times are in EDT time to prevent confusion due to time zone crossing. See the N34VR flight status page for this flight to view local times or setup timezone preferences in your user account.

Time Position Orientation Groundspeed Altitude Reporting Facility
EDT Latitude Longitude Course Direction KTS MPH feet Rate Location/Type
Thu 11:46:11 AM 25.6394 -80.3622 88° East 220 253 2,100  Level Miami Center
Thu 11:46:48 AM 25.6406 -80.3183 88° East 248 285 2,000 -61 Descending Miami Center
Thu 11:47:49 AM 25.6022 -80.2575 125° Southeast 246 283 2,000 308 Level Miami Center
Thu 11:48:45 AM 25.5806 -80.1947 111° Southeast 248 285 2,600 1,024 Climbing Miami Center
Thu 11:49:52 AM 25.5806 -80.1094 90° East 264 304 4,100 1,247 Climbing Miami Center
Thu 11:50:02 AM 25.5831 -80.0819 84° East 265 305 4,200 2,400 Climbing Miami Center
Thu 11:51:02 AM 25.5806 -80.0058 92° East 278 320 6,900 1,600 Climbing Miami Center
Thu 11:52:02 AM 25.5742 -79.9181 95° East 278 320 7,400 1,550 Climbing Miami Center
Thu 11:53:02 AM 25.5717 -79.8306 92° East 278 320 10,000 2,350 Climbing Miami Center
Thu 11:54:02 AM 25.5694 -79.7361 91° East 289 333 12,100 2,100 Climbing Miami Center
Thu 11:55:02 AM 25.5672 -79.6392 91° East 301 346 14,200 2,100 Climbing Miami Center
Thu 11:56:02 AM 25.5628 -79.5400 93° East 312 359 16,300 1,800 Climbing Miami Center
Thu 11:57:02 AM 25.5583 -79.4408 93° East 312 359 17,800 1,650 Climbing Miami Center
Thu 11:58:02 AM 25.5517 -79.3372 94° East 323 372 19,600 1,750 Climbing Miami Center
Thu 11:59:02 AM 25.5386 -79.2308 98° East 338 389 21,300 1,700 Climbing Miami Center
Thu 12:00:02 PM 25.5153 -79.1200 103° East 350 403 23,000 1,850 Climbing Miami Center
Thu 12:01:02 PM 25.4772 -79.0111 111° Southeast 363 418 25,000 1,900 Climbing Miami Center
Thu 12:02:02 PM 25.4097 -78.9225 130° Southeast 373 429 26,800 1,650 Climbing Miami Center
Thu 12:03:02 PM 25.3314 -78.8339 134° Southeast 384 442 28,300 1,650 Climbing Miami Center
Thu 12:04:02 PM 25.2450 -78.7450 137° Southeast 396 456 30,100 1,750 Climbing Miami Center
Thu 12:05:02 PM 25.1686 -78.6497 132° Southeast 407 468 31,800 1,400 Climbing Miami Center
Thu 12:06:02 PM 25.0842 -78.5522 134° Southeast 418 481 32,900 1,250 Climbing Miami Center
Thu 12:07:02 PM 24.9975 -78.4478 132° Southeast 437 503 34,300 1,300 Climbing Miami Center
Thu 12:08:02 PM 24.9108 -78.3392 131° Southeast 452 520 35,500 1,200 Climbing Miami Center
Thu 12:09:02 PM 24.8242 -78.2281 131° Southeast 465 535 36,700 1,250 Climbing Miami Center
Thu 12:10:02 PM 24.7353 -78.1128 130° Southeast 475 547 38,000 1,200 Climbing Miami Center
Thu 12:11:02 PM 24.6422 -77.9975 132° Southeast 490 564 39,100 1,150 Climbing Miami Center
Thu 12:12:02 PM 24.5511 -77.8800 130° Southeast 500 575 40,300 950 Climbing Miami Center
Thu 12:13:02 PM 24.4600 -77.7606 130° Southeast 505 581 41,000 350 Climbing Miami Center
Thu 12:14:02 PM 24.3603 -77.6414 133° Southeast 518 596 41,000  Level Miami Center
Thu 12:15:02 PM 24.2586 -77.5200 133° Southeast 529 609 41,000  Level Miami Center
Thu 12:16:02 PM 24.1544 -77.3942 132° Southeast 540 621 41,000  Level Miami Center
Thu 12:17:02 PM 24.0547 -77.2686 131° Southeast 545 627 41,000  Level Miami Center
Thu 12:18:02 PM 23.9503 -77.1453 133° Southeast 545 627 41,000  Level Miami Center
Thu 12:19:02 PM 23.8586 -77.0361 133° Southeast 539 620 41,000  Level Miami Center
Thu 12:20:02 PM 23.7564 -76.9111 132° Southeast 539 620 41,000  Level Miami Center
Thu 12:21:02 PM 23.6517 -76.7864 132° Southeast 545 627 41,000  Level Miami Center
Thu 12:22:02 PM 23.5492 -76.6639 132° Southeast 545 627 41,000  Level Miami Center
Thu 12:23:02 PM 23.4300 -76.5236 133° Southeast 560 644 41,000  Level Miami Center
Thu 12:24:02 PM 23.3272 -76.3972 132° Southeast 560 644 41,000  Level Miami Center
Thu 12:25:02 PM 23.2222 -76.2778 134° Southeast 560 644 41,000  Level Miami Center
Thu 12:26:02 PM 23.1172 -76.1542 133° Southeast 555 639 41,000  Level Miami Center
Thu 12:27:02 PM 23.0100 -76.0306 133° Southeast 555 639 41,000  Level Miami Center
Thu 12:28:02 PM 22.9047 -75.9050 132° Southeast 555 639 41,000  Level Miami Center
Thu 12:29:02 PM 22.8017 -75.7842 133° Southeast 555 639 41,000  Level Miami Center
Thu 12:30:02 PM 22.6961 -75.6633 133° Southeast 555 639 41,000  Level Miami Center
Thu 12:31:02 PM 22.5886 -75.5406 133° Southeast 555 639 41,000  Level Miami Center
Thu 12:32:02 PM 22.4831 -75.4225 134° Southeast 550 633 41,000  Level Miami Center
Thu 12:33:02 PM 22.3817 -75.3022 132° Southeast 550 633 41,000  Level Miami Center
Thu 12:34:02 PM 22.2758 -75.1847 134° Southeast 550 633 41,000  Level Miami Center
Thu 12:35:02 PM 22.1681 -75.0694 135° Southeast 550 633 41,000  Level Miami Center
Thu 12:36:02 PM 22.0539 -74.9589 138° Southeast 550 633 41,000  Level Miami Center
Thu 12:37:02 PM 21.9378 -74.8508 139° Southeast 555 639 41,000  Level Miami Center
Thu 12:38:02 PM 21.8214 -74.7408 139° Southeast 555 639 41,000  Level Miami Center
Thu 12:39:02 PM 21.7111 -74.6308 137° Southeast 549 632 41,000  Level Miami Center
Thu 12:40:02 PM 21.5947 -74.5236 139° Southeast 544 626 41,000  Level Miami Center
Thu 12:41:02 PM 21.4803 -74.4183 139° Southeast 544 626 41,000  Level Miami Center
Thu 12:42:02 PM 21.3658 -74.3114 139° Southeast 544 626 41,000  Level Miami Center
Thu 12:43:02 PM 21.2492 -74.2022 139° Southeast 544 626 41,000  Level Miami Center
Thu 12:44:02 PM 21.1367 -74.0997 140° Southeast 537 618 41,000  Level Miami Center
Thu 12:45:02 PM 21.0200 -73.9933 140° Southeast 542 624 41,000  Level Miami Center
Thu 12:46:02 PM 20.9075 -73.8889 139° Southeast 542 624 41,000  Level Miami Center
Thu 12:47:02 PM 20.7925 -73.7828 139° Southeast 542 624 41,000  Level Miami Center
Thu 12:48:02 PM 20.6800 -73.6789 139° Southeast 542 624 41,000  Level Miami Center
Thu 12:49:02 PM 20.5653 -73.5797 141° Southeast 542 624 41,000  Level Miami Center
Thu 12:50:02 PM 20.4653 -73.4892 140° Southeast 537 618 41,000  Level Miami Center
Thu 12:51:02 PM 20.3525 -73.3900 140° Southeast 530 610 41,000  Level Miami Center
Thu 12:52:02 PM 20.2353 -73.2869 140° Southeast 535 616 41,000  Level Miami Center
Thu 12:53:02 PM 20.1164 -73.1906 143° Southeast 535 616 41,000  Level Miami Center
Thu 12:54:02 PM 19.9875 -73.1167 152° Southeast 535 616 41,000  Level Miami Center
Thu 12:56:00 PM 19.7563 -72.9943 153° Southeast  Level FlightAware Approximate
Thu 01:03:00 PM 18.9411 -72.5462 152° Southeast  Level FlightAware Approximate
Thu 01:04:00 PM 18.8252 -72.4813 152° Southeast  Level FlightAware Approximate
Thu 01:05:00 PM 18.7092 -72.4164 152° Southeast  Level FlightAware Approximate
Thu 01:06:00 PM 18.5928 -72.3525 153° Southeast  Level FlightAware Approximate
Thu 01:07:00 PM 18.4760 -72.2896 153° Southeast  Level FlightAware Approximate
Thu 01:08:00 PM 18.3630 -72.2197 148° Southeast  Level FlightAware Approximate
Thu 01:09:00 PM 18.2521 -72.1458 148° Southeast  Level FlightAware Approximate
Thu 01:10:00 PM 18.1413 -72.0719 148° Southeast  Level FlightAware Approximate
Thu 01:11:00 PM 18.0268 -72.0045 151° Southeast  Level FlightAware Approximate
Thu 01:12:00 PM 17.9125 -71.9367 149° Southeast  Level FlightAware Approximate
Thu 01:13:00 PM 17.8004 -71.8653 149° Southeast  Level FlightAware Approximate
Thu 01:14:00 PM 17.6882 -71.7939 149° Southeast  Level FlightAware Approximate
Thu 01:15:00 PM 17.5760 -71.7226 149° Southeast  Level FlightAware Approximate
Thu 01:16:00 PM 17.4659 -71.6487 150° Southeast  Level FlightAware Approximate
Thu 01:17:00 PM 17.3524 -71.5796 150° Southeast  Level FlightAware Approximate
Thu 01:18:00 PM 17.2390 -71.5106 150° Southeast  Level FlightAware Approximate
Thu 01:19:00 PM 17.1258 -71.4411 149° Southeast  Level FlightAware Approximate
Thu 01:20:00 PM 17.0132 -71.3707 149° Southeast  Level FlightAware Approximate
Thu 01:21:00 PM 16.9006 -71.3004 149° Southeast  Level FlightAware Approximate
Thu 01:22:00 PM 16.7875 -71.2309 150° Southeast  Level FlightAware Approximate
Thu 01:23:00 PM 16.6744 -71.1616 150° Southeast  Level FlightAware Approximate
Thu 01:24:00 PM 16.5612 -71.0923 150° Southeast  Level FlightAware Approximate
Thu 01:25:00 PM 16.4480 -71.0230 150° Southeast  Level FlightAware Approximate
Thu 01:26:00 PM 16.3348 -70.9539 150° Southeast  Level FlightAware Approximate
Thu 01:27:00 PM 16.2216 -70.8849 150° Southeast  Level FlightAware Approximate
Thu 01:28:00 PM 16.1084 -70.8159 150° Southeast  Level FlightAware Approximate
Thu 01:29:00 PM 15.9948 -70.7476 155° Southeast  Level FlightAware Approximate
Thu 01:30:00 PM 15.8755 -70.6909 155° Southeast  Level FlightAware Approximate
Thu 01:31:00 PM 15.7561 -70.6343 155° Southeast  Level FlightAware Approximate
Thu 01:32:00 PM 15.6368 -70.5778 155° Southeast  Level FlightAware Approximate
Thu 01:33:00 PM 15.5174 -70.5213 156° South  Level FlightAware Approximate
Thu 01:34:00 PM 15.3980 -70.4649 156° South  Level FlightAware Approximate
Thu 01:35:00 PM 15.2785 -70.4086 156° South  Level FlightAware Approximate
Thu 01:36:00 PM 15.1591 -70.3523 156° South  Level FlightAware Approximate
Thu 01:37:00 PM 15.0394 -70.2967 156° South  Level FlightAware Approximate
Thu 01:38:00 PM 14.9192 -70.2422 156° South  Level FlightAware Approximate
Thu 01:39:00 PM 14.7990 -70.1878 156° South  Level FlightAware Approximate
Thu 01:40:00 PM 14.6788 -70.1334 156° South  Level FlightAware Approximate
Thu 01:41:00 PM 14.5586 -70.0791 156° South  Level FlightAware Approximate
Thu 01:42:00 PM 14.4384 -70.0248 156° South  Level FlightAware Approximate
Thu 01:43:00 PM 14.3184 -69.9702 156° South  Level FlightAware Approximate
Thu 01:44:00 PM 14.1985 -69.9152 156° South  Level FlightAware Approximate
Thu 01:45:00 PM 14.0786 -69.8603 156° South  Level FlightAware Approximate
Thu 01:46:00 PM 13.9587 -69.8054 156° South  Level FlightAware Approximate
Thu 01:47:00 PM 13.8388 -69.7506 156° South  Level FlightAware Approximate
Thu 01:48:00 PM 13.7188 -69.6958 156° South  Level FlightAware Approximate
Thu 01:49:00 PM 13.5989 -69.6411 156° South  Level FlightAware Approximate
Thu 01:50:00 PM 13.4789 -69.5865 156° South  Level FlightAware Approximate
Thu 01:51:00 PM 13.3590 -69.5319 156° South  Level FlightAware Approximate
Thu 01:52:00 PM 13.2390 -69.4773 156° South  Level FlightAware Approximate
Thu 01:53:00 PM 13.1190 -69.4229 156° South  Level FlightAware Approximate
Thu 01:54:00 PM 12.9990 -69.3684 156° South  Level FlightAware Approximate
Thu 01:55:00 PM 12.8790 -69.3141 156° South  Level FlightAware Approximate
Thu 01:56:00 PM 12.7589 -69.2598 156° South  Level FlightAware Approximate
Thu 01:57:00 PM 12.6389 -69.2055 156° South  Level FlightAware Approximate
Thu 01:58:00 PM 12.5189 -69.1513 156° South  Level FlightAware Approximate
Thu 01:59:00 PM 12.3988 -69.0971 156° South  Level FlightAware Approximate
Thu 02:00:00 PM 12.2787 -69.0430 156° South  Level FlightAware Approximate
Thu 02:01:00 PM 12.1655 -68.9793 132° Southeast  Level FlightAware Approximate
Thu 02:02:00 PM 12.0785 -68.8789 132° Southeast  Level FlightAware Approximate
Thu 02:03:00 PM 11.9914 -68.7785 132° Southeast  Level FlightAware Approximate
Thu 02:04:00 PM 11.9073 -68.6757 129° Southeast  Level FlightAware Approximate
Thu 02:05:00 PM 11.8236 -68.5725 133° Southeast  Level FlightAware Approximate
Thu 02:06:00 PM 11.7348 -68.4738 133° Southeast  Level FlightAware Approximate
Thu 02:07:00 PM 11.6466 -68.3746 132° Southeast  Level FlightAware Approximate
Thu 02:08:00 PM 11.5603 -68.2738 124° Southeast  Level FlightAware Approximate
Thu 02:09:00 PM 11.4829 -68.1662 136° Southeast  Level FlightAware Approximate
Thu 02:10:00 PM 11.3920 -68.0699 130° Southeast  Level FlightAware Approximate
Thu 02:11:00 PM 11.3080 -67.9671 130° Southeast  Level FlightAware Approximate
Thu 02:12:00 PM 11.2213 -67.8668 133° Southeast  Level FlightAware Approximate
Thu 02:13:00 PM 11.1321 -67.7687 133° Southeast  Level FlightAware Approximate
Thu 02:14:00 PM 11.0449 -67.6689 131° Southeast  Level FlightAware Approximate
Thu 02:15:00 PM 10.9586 -67.5682 131° Southeast  Level FlightAware Approximate
Thu 02:16:00 PM 10.8723 -67.4676 131° Southeast  Level FlightAware Approximate
Thu 02:17:00 PM 10.7858 -67.3671 132° Southeast  Level FlightAware Approximate
Thu 02:18:00 PM 10.6986 -67.2674 132° Southeast  Level FlightAware Approximate
Thu 02:19:00 PM 10.6150 -67.1645 129° Southeast  Level FlightAware Approximate
Thu 02:20:00 PM 10.5298 -67.0632 135° Southeast  Level FlightAware Approximate
Thu 02:21:00 PM 10.4363 -66.9696 135° Southeast  Level FlightAware Approximate
Thu 02:22:00 PM 10.3500 -66.9444 127° Southeast  Level Estimated
Thu 02:23:00 PM 10.3500 -66.9444 270° West  Level Estimated
Thu 02:24:00 PM 10.3500 -66.9444 270° West  Level Estimated
Thu 02:25:00 PM 10.3500 -66.9444 270° West  Level Estimated
Thu 02:26:00 PM 10.3500 -66.9444 270° West  Level Estimated
Thu 02:27:00 PM 10.3500 -66.9444 270° West  Level Estimated
Thu 02:28:00 PM 10.3500 -66.9444 270° West  Level Estimated
Thu 02:29:00 PM 10.3500 -66.9444 270° West  Level Estimated
Thu 02:30:00 PM 10.3500 -66.9444 270° West  Level Estimated
Thu 02:31:00 PM 10.3500 -66.9444 270° West  Level Estimated
Thu 02:32:00 PM 10.3500 -66.9444 270° West  Level Estimated
Thu 02:33:00 PM 10.3500 -66.9444 270° West  Level Estimated
Thu 02:34:00 PM 10.3500 -66.9444 270° West  Level Estimated
Thu 02:35:00 PM 10.3500 -66.9444 270° West  Level Estimated
Thu 02:36:00 PM 10.3500 -66.9444 270° West  Level Estimated
Thu 02:37:00 PM 10.3500 -66.9444 270° West  Level Estimated
Thu 02:38:00 PM 10.3500 -66.9444 270° West  Level Estimated
Thu 02:39:00 PM 10.3500 -66.9444 270° West  Level Estimated

Login

Don't have an account? Register now (free) for customized features, flight alerts, and more!